createdAt,value
2023-04-24T10:03:33.215Z,98982.10
2023-04-24T10:06:00.559Z,98982.79
2023-04-24T10:08:25.168Z,98983.28
2023-04-24T10:10:48.924Z,98977.60
2023-04-24T10:13:15.453Z,98978.21
2023-04-24T10:15:39.285Z,98976.41
2023-04-24T10:18:05.783Z,98970.66
2023-04-24T10:20:31.075Z,98967.27
2023-04-24T10:22:55.303Z,98965.45
2023-04-24T10:25:21.511Z,98960.95
2023-04-24T10:27:46.340Z,98957.83
2023-04-24T10:30:13.967Z,98957.91
2023-04-24T10:32:38.041Z,98952.52
2023-04-24T10:35:01.664Z,98950.07
2023-04-24T10:37:27.131Z,98948.82
2023-04-24T10:39:52.113Z,98942.31
2023-04-24T10:42:16.674Z,98941.49
2023-04-24T10:44:41.883Z,98939.25
2023-04-24T10:47:05.922Z,98939.24
2023-04-24T10:49:32.956Z,98936.83
2023-04-24T10:52:02.364Z,98932.23
2023-04-24T10:54:28.028Z,98930.09
2023-04-24T10:56:52.615Z,98929.27
2023-04-24T10:59:25.782Z,98928.95
2023-04-24T11:01:54.960Z,98924.91
2023-04-24T11:04:31.727Z,98938.59
2023-04-24T11:06:55.925Z,98929.77
2023-04-24T11:09:22.339Z,98925.78
2023-04-24T11:11:47.816Z,98923.36
2023-04-24T11:14:12.124Z,98924.93
2023-04-24T11:16:39.647Z,98928.15
2023-04-24T11:19:05.668Z,98920.86
2023-04-24T11:21:32.288Z,98920.13
2023-04-24T11:23:56.238Z,98919.44
2023-04-24T11:26:23.500Z,98920.23
2023-04-24T11:28:48.935Z,98921.34
2023-04-24T11:31:37.592Z,98929.98
2023-04-24T11:34:08.408Z,98918.48
2023-04-24T11:36:33.178Z,98921.36
2023-04-24T11:38:57.446Z,98921.44
2023-04-24T11:41:22.760Z,98923.06
2023-04-24T11:43:47.080Z,98916.75
2023-04-24T11:46:11.343Z,98922.30
2023-04-24T11:48:40.424Z,98921.72
2023-04-24T11:51:04.224Z,98917.14
2023-04-24T11:53:27.793Z,98916.38
2023-04-24T11:55:51.480Z,98916.82
2023-04-24T11:58:14.927Z,98915.52
2023-04-24T12:00:38.734Z,98919.46
2023-04-24T12:03:07.719Z,98914.70
2023-04-24T12:05:31.908Z,98919.06
2023-04-24T12:07:55.814Z,98911.30
2023-04-24T12:10:23.465Z,98900.36
2023-04-24T12:12:47.186Z,98896.66
2023-04-24T12:15:12.824Z,98906.42
2023-04-24T12:17:37.408Z,98896.48
2023-04-24T12:20:02.832Z,98894.52
2023-04-24T12:22:26.276Z,98900.72
2023-04-24T12:25:03.518Z,98885.11
2023-04-24T12:27:32.695Z,98878.39
2023-04-24T12:29:57.836Z,98876.02
2023-04-24T12:32:21.917Z,98874.15
2023-04-24T12:34:45.390Z,98882.25
2023-04-24T12:37:12.459Z,98866.96
2023-04-24T12:39:36.098Z,98883.09
2023-04-24T12:42:01.809Z,98882.35
2023-04-24T12:44:32.266Z,98880.70
2023-04-24T12:46:55.861Z,98878.86
2023-04-24T12:49:19.340Z,98877.05
2023-04-24T12:51:42.713Z,98899.15
2023-04-24T12:54:06.750Z,98914.40
2023-04-24T12:56:31.079Z,98912.06
2023-04-24T12:58:54.473Z,98929.78
2023-04-24T13:01:18.538Z,98913.17
2023-04-24T13:03:43.058Z,98924.73
2023-04-24T13:06:07.065Z,98931.92
2023-04-24T13:08:31.135Z,98924.81
2023-04-24T13:10:54.568Z,98916.71
2023-04-24T13:13:18.041Z,98931.95
2023-04-24T13:15:41.907Z,98929.35
2023-04-24T13:18:05.817Z,98928.72
2023-04-24T13:20:29.424Z,98924.08
2023-04-24T13:22:53.137Z,98923.28
2023-04-24T13:25:17.421Z,98912.71
2023-04-24T13:27:40.841Z,98910.71
2023-04-24T13:30:06.196Z,98904.53
2023-04-24T13:32:29.979Z,98908.21
2023-04-24T13:34:53.626Z,98908.23
2023-04-24T13:37:17.271Z,98915.81
2023-04-24T13:39:41.649Z,98901.29
2023-04-24T13:42:05.448Z,98914.80
2023-04-24T13:44:28.937Z,98899.93
2023-04-24T13:46:54.651Z,98897.06
2023-04-24T13:49:18.356Z,98910.09
2023-04-24T13:51:43.148Z,98916.90
2023-04-24T13:54:06.680Z,98905.52
2023-04-24T13:56:30.142Z,98920.59
2023-04-24T13:58:55.586Z,98914.83
2023-04-24T14:01:19.245Z,98918.30
2023-04-24T14:03:44.173Z,98928.90
2023-04-24T14:06:09.206Z,98912.63
2023-04-24T14:08:32.548Z,98921.66
2023-04-24T14:10:56.034Z,98901.58
2023-04-24T14:13:20.440Z,98894.02
2023-04-24T14:15:43.975Z,98884.05
2023-04-24T14:18:07.486Z,98881.08
2023-04-24T14:20:31.626Z,98890.98
2023-04-24T14:22:55.082Z,98884.42
2023-04-24T14:25:18.555Z,98874.44
2023-04-24T14:27:42.357Z,98862.78
2023-04-24T14:30:08.879Z,98864.61
2023-04-24T14:32:32.371Z,98854.26
2023-04-24T14:34:56.010Z,98859.91
2023-04-24T14:37:19.598Z,98861.36
2023-04-24T14:39:44.484Z,98858.27
2023-04-24T14:42:11.591Z,98854.82
2023-04-24T14:44:34.941Z,98850.02
2023-04-24T14:46:59.072Z,98851.17
2023-04-24T14:49:23.892Z,98845.02
2023-04-24T14:51:47.586Z,98843.88
2023-04-24T14:54:15.249Z,98838.20
2023-04-24T14:56:41.389Z,98835.48
2023-04-24T14:59:05.386Z,98827.91
2023-04-24T15:01:28.839Z,98828.95
2023-04-24T15:03:53.227Z,98827.12
2023-04-24T15:06:16.977Z,98825.81
2023-04-24T15:08:40.422Z,98821.45
2023-04-24T15:11:04.937Z,98822.95
2023-04-24T15:13:28.345Z,98820.60
2023-04-24T15:15:52.055Z,98815.15
2023-04-24T15:18:16.119Z,98810.74
2023-04-24T15:20:39.954Z,98810.28
2023-04-24T15:23:03.527Z,98805.02
2023-04-24T15:25:27.243Z,98802.96
2023-04-24T15:27:50.848Z,98802.34
2023-04-24T15:30:15.059Z,98795.94
2023-04-24T15:32:38.951Z,98799.44
2023-04-24T15:35:08.466Z,98794.16
2023-04-24T15:37:33.082Z,98790.11
2023-04-24T15:39:57.014Z,98790.50
2023-04-24T15:42:20.456Z,98785.52
2023-04-24T15:44:45.529Z,98774.08
2023-04-24T15:47:09.884Z,98769.98
2023-04-24T15:49:33.582Z,98772.63
2023-04-24T15:51:57.105Z,98771.80
2023-04-24T15:54:21.112Z,98766.52
2023-04-24T15:56:45.138Z,98759.98
2023-04-24T15:59:08.754Z,98756.13
2023-04-24T16:01:33.373Z,98757.56
2023-04-24T16:03:57.298Z,98760.50
2023-04-24T16:06:20.801Z,98756.27
2023-04-24T16:08:44.602Z,98757.67
2023-04-24T16:11:07.965Z,98753.71
2023-04-24T16:13:33.705Z,98752.29
2023-04-24T16:15:57.808Z,98755.90
2023-04-24T16:18:21.855Z,98755.73
2023-04-24T16:20:45.838Z,98753.80
2023-04-24T16:23:10.024Z,98759.10
2023-04-24T16:25:33.693Z,98761.91
2023-04-24T16:27:57.197Z,98761.14
2023-04-24T16:30:20.722Z,98763.48
2023-04-24T16:32:44.206Z,98762.20
2023-04-24T16:35:08.690Z,98759.46
2023-04-24T16:37:32.583Z,98755.89
2023-04-24T16:39:56.273Z,98751.11
2023-04-24T16:42:19.715Z,98754.65
2023-04-24T16:44:44.283Z,98749.11
2023-04-24T16:47:07.948Z,98752.47
2023-04-24T16:49:32.145Z,98751.59
2023-04-24T16:51:56.736Z,98752.68
2023-04-24T16:54:20.170Z,98749.77
2023-04-24T16:56:44.562Z,98751.30
2023-04-24T16:59:08.576Z,98752.73
2023-04-24T17:01:32.008Z,98753.34
2023-04-24T17:03:56.348Z,98748.28
2023-04-24T17:06:20.726Z,98748.30
2023-04-24T17:08:44.089Z,98747.30
2023-04-24T17:11:07.484Z,98746.01
2023-04-24T17:13:33.163Z,98748.69
2023-04-24T17:15:56.754Z,98746.54
2023-04-24T17:18:20.156Z,98748.06
2023-04-24T17:20:43.782Z,98745.35
2023-04-24T17:23:11.206Z,98747.40
2023-04-24T17:25:34.538Z,98747.70
2023-04-24T17:27:59.549Z,98751.23
2023-04-24T17:30:23.527Z,98752.09
2023-04-24T17:32:47.087Z,98754.05
2023-04-24T17:35:11.906Z,98752.39
2023-04-24T17:37:35.587Z,98754.74
2023-04-24T17:39:59.067Z,98752.81
2023-04-24T17:42:23.440Z,98752.41
2023-04-24T17:44:47.079Z,98752.24
2023-04-24T17:47:10.649Z,98752.84
2023-04-24T17:49:34.814Z,98753.36
2023-04-24T17:51:58.265Z,98752.33
2023-04-24T17:54:21.808Z,98750.80
2023-04-24T17:56:46.425Z,98749.23
2023-04-24T17:59:09.885Z,98750.59
2023-04-24T18:01:33.396Z,98749.45
2023-04-24T18:03:57.428Z,98748.86
2023-04-24T18:06:21.264Z,98747.19
2023-04-24T18:08:44.783Z,98747.52
2023-04-24T18:11:10.095Z,98749.96
2023-04-24T18:13:33.866Z,98751.04
2023-04-24T18:15:57.382Z,98753.29
2023-04-24T18:18:22.530Z,98752.45
2023-04-24T18:20:46.420Z,98753.56
2023-04-24T18:23:10.290Z,98758.09
2023-04-24T18:25:34.677Z,98756.13
2023-04-24T18:27:58.227Z,98759.77
2023-04-24T18:30:23.441Z,98761.85
2023-04-24T18:32:49.392Z,98762.15
2023-04-24T18:35:12.916Z,98760.95
2023-04-24T18:37:36.371Z,98764.48
2023-04-24T18:40:01.024Z,98765.62
2023-04-24T18:42:24.687Z,98764.14
2023-04-24T18:44:49.167Z,98761.33
2023-04-24T18:47:13.634Z,98765.96
2023-04-24T18:49:38.530Z,98766.38
2023-04-24T18:52:02.144Z,98770.74
2023-04-24T18:54:26.881Z,98769.34
2023-04-24T18:56:50.878Z,98776.20
2023-04-24T18:59:14.400Z,98778.84
2023-04-24T19:01:39.193Z,98775.36
2023-04-24T19:04:03.485Z,98778.30
2023-04-24T19:06:26.928Z,98781.23
2023-04-24T19:08:52.087Z,98783.42
2023-04-24T19:11:15.570Z,98781.73
2023-04-24T19:13:38.970Z,98781.85
2023-04-24T19:16:03.008Z,98782.19
2023-04-24T19:18:28.674Z,98782.08
2023-04-24T19:20:52.334Z,98784.96
2023-04-24T19:23:16.002Z,98794.36
2023-04-24T19:25:39.420Z,98798.77
2023-04-24T19:28:02.984Z,98797.63
2023-04-24T19:30:26.827Z,98800.27
2023-04-24T19:32:50.241Z,98801.55
2023-04-24T19:35:13.711Z,98800.05
2023-04-24T19:37:39.798Z,98791.84
2023-04-24T19:40:03.651Z,98793.81
2023-04-24T19:42:41.889Z,98788.65
2023-04-24T19:45:16.186Z,98791.33
2023-04-24T19:47:39.897Z,98788.61
2023-04-24T19:50:03.880Z,98802.38
2023-04-24T19:52:28.339Z,98813.79
2023-04-24T19:54:52.026Z,98825.79
2023-04-24T19:57:15.623Z,98825.72
2023-04-24T19:59:40.837Z,98827.50
2023-04-24T20:02:04.335Z,98831.52
2023-04-24T20:04:28.046Z,98825.83
2023-04-24T20:06:52.628Z,98822.00
2023-04-24T20:09:15.993Z,98821.61
2023-04-24T20:11:39.982Z,98823.77
2023-04-24T20:14:03.858Z,98825.80
2023-04-24T20:16:27.649Z,98828.02
2023-04-24T20:18:51.423Z,98830.02
2023-04-24T20:21:15.333Z,98825.71
2023-04-24T20:23:38.806Z,98827.14
2023-04-24T20:26:04.236Z,98826.23
2023-04-24T20:28:29.468Z,98825.65
2023-04-24T20:30:55.609Z,98826.96
2023-04-24T20:33:19.240Z,98829.23
2023-04-24T20:35:44.906Z,98832.45
2023-04-24T20:38:10.344Z,98827.92
2023-04-24T20:40:34.853Z,98827.34
2023-04-24T20:42:59.834Z,98827.28
2023-04-24T20:45:23.575Z,98823.02
2023-04-24T20:47:49.989Z,98826.08
2023-04-24T20:50:15.950Z,98824.65
2023-04-24T20:52:39.424Z,98824.01
2023-04-24T20:55:03.804Z,98821.88
2023-04-24T20:57:29.607Z,98824.16
2023-04-24T20:59:53.495Z,98823.52
2023-04-24T21:02:17.127Z,98827.59
2023-04-24T21:04:41.785Z,98829.27
2023-04-24T21:07:05.565Z,98825.69
2023-04-24T21:09:29.082Z,98827.44
2023-04-24T21:11:53.145Z,98826.70
2023-04-24T21:14:16.532Z,98827.48
2023-04-24T21:16:40.245Z,98828.77
2023-04-24T21:19:05.512Z,98832.24
2023-04-24T21:21:29.076Z,98830.48
2023-04-24T21:23:52.479Z,98829.68
2023-04-24T21:26:16.677Z,98823.95
2023-04-24T21:28:40.174Z,98831.54
2023-04-24T21:31:03.777Z,98833.54
2023-04-24T21:33:28.860Z,98831.26
2023-04-24T21:36:06.268Z,98835.65
2023-04-24T21:38:30.419Z,98839.06
2023-04-24T21:40:53.968Z,98841.98
2023-04-24T21:43:17.869Z,98845.23
2023-04-24T21:45:41.872Z,98843.56
2023-04-24T21:48:05.961Z,98840.19
2023-04-24T21:50:29.951Z,98848.66
2023-04-24T21:52:54.870Z,98844.58
2023-04-24T21:55:20.664Z,98844.14
2023-04-24T21:57:44.967Z,98842.50
2023-04-24T22:00:12.504Z,98842.41
2023-04-24T22:02:36.423Z,98838.70
2023-04-24T22:05:02.650Z,98837.99
2023-04-24T22:07:26.335Z,98841.56
2023-04-24T22:09:50.015Z,98839.76
2023-04-24T22:12:13.499Z,98837.91
2023-04-24T22:14:36.947Z,98841.09
2023-04-24T22:17:00.344Z,98834.91
2023-04-24T22:19:25.535Z,98835.75
2023-04-24T22:21:49.848Z,98841.64
2023-04-24T22:24:18.719Z,98842.19
2023-04-24T22:26:42.308Z,98838.36
2023-04-24T22:29:06.018Z,98839.88
2023-04-24T22:31:29.726Z,98836.39
2023-04-24T22:33:53.431Z,98837.04
2023-04-24T22:36:19.967Z,98836.66
2023-04-24T22:38:43.742Z,98838.18
2023-04-24T22:41:07.590Z,98842.05
2023-04-24T22:43:31.556Z,98845.14
2023-04-24T22:45:55.046Z,98842.73
2023-04-24T22:48:18.513Z,98841.04
2023-04-24T22:50:42.390Z,98841.92
2023-04-24T22:53:06.496Z,98839.80
2023-04-24T22:55:30.952Z,98839.54
2023-04-24T22:57:56.874Z,98840.46
2023-04-24T23:00:20.376Z,98841.19
2023-04-24T23:02:44.339Z,98844.09
2023-04-24T23:05:10.195Z,98841.25
2023-04-24T23:07:34.107Z,98842.42
2023-04-24T23:09:57.777Z,98839.75
2023-04-24T23:12:21.243Z,98839.65
2023-04-24T23:14:44.705Z,98842.27
2023-04-24T23:17:08.374Z,98841.61
2023-04-24T23:19:33.372Z,98843.08
2023-04-24T23:21:56.963Z,98843.23
2023-04-24T23:24:20.505Z,98842.46
2023-04-24T23:26:43.969Z,98838.08
2023-04-24T23:29:07.845Z,98836.86
2023-04-24T23:31:31.645Z,98838.91
2023-04-24T23:33:59.519Z,98829.44
2023-04-24T23:36:22.958Z,98832.63
2023-04-24T23:38:50.246Z,98832.79
2023-04-24T23:41:14.382Z,98834.33
2023-04-24T23:43:38.456Z,98832.02
2023-04-24T23:46:02.690Z,98833.50
2023-04-24T23:48:26.066Z,98828.55
2023-04-24T23:50:49.668Z,98821.63
2023-04-24T23:53:13.097Z,98823.16
2023-04-24T23:55:36.927Z,98815.84
2023-04-24T23:58:00.470Z,98809.99
